Gokbel — TCZY4 — position and weather

sailwx.info

Track history (hours):
 
Tides and Currents Weather Stations Pressure Air Temp Water Temp Dewpoint Dewpoint Depression Visibility Wind Speed Wind Dir Waves Ship Positions

Gokbel

Last reported at 2014-Oct-18 12:15 UTC. Time now 2014-Oct-24 08:40 UTC.
Position N 34°06' E 010°31'.

Length 87 m; draft 3.7 m.

MMSI: 271042598.

Date/timePositionNaut miles runAvg speedWind from/ knotsBaromVisibWave heightAir tempDewpointWater temp
2014-Oct-18 12:15N 34°06' E 010°31'9 8.4
2014-Oct-18 11:08N 34°10' E 010°41'5 8.0
2014-Oct-18 10:33N 34°12' E 010°46'10 9.5
2014-Oct-18 09:32N 34°17' E 010°57'10 9.9
2014-Oct-18 08:33N 34°21' E 011°07'10 9.7
2014-Oct-18 07:33N 34°25' E 011°18'13 9.3
2014-Oct-18 06:07N 34°31' E 011°32'7 9.1
2014-Oct-18 05:19N 34°34' E 011°40'18 9.0
2014-Oct-18 03:18N 34°43' E 012°00'8 9.6
2014-Oct-18 02:28N 34°46' E 012°09'9 9.4
2014-Oct-18 01:33N 34°50' E 012°18'12 9.5
2014-Oct-18 00:20N 34°55' E 012°31'20 9.9
2014-Oct-17 22:20N 35°04' E 012°52'810.0
2014-Oct-17 21:33N 35°07' E 013°01'10 9.7
2014-Oct-17 20:33N 35°12' E 013°12'10 9.8
2014-Oct-17 19:33N 35°16' E 013°22'1010.0
2014-Oct-17 18:33N 35°20' E 013°33'10 9.8
2014-Oct-17 17:33N 35°25' E 013°44'9 9.5
2014-Oct-17 16:33N 35°29' E 013°55'9 9.4
2014-Oct-17 15:33N 35°33' E 014°05'9 9.2
2014-Oct-17 14:33N 35°37' E 014°15'9 9.0
2014-Oct-17 13:33N 35°40' E 014°25'9 8.7
2014-Oct-17 12:33N 35°44' E 014°35'9 8.6
2014-Oct-17 11:33N 35°49' E 014°43'7 7.2
2014-Oct-17 10:33N 35°55' E 014°49'0 0.0
2014-Oct-17 09:31N 35°55' E 014°49'0 0.0
2014-Oct-17 08:31N 35°55' E 014°49'0 0.0
2014-Oct-17 07:31N 35°55' E 014°49'0 0.0
2014-Oct-17 06:31N 35°55' E 014°49'0 0.0
2014-Oct-17 05:31N 35°55' E 014°49'0 0.0
2014-Oct-17 04:25N 35°55' E 014°49'0 0.1
2014-Oct-17 03:31N 35°55' E 014°49'0 0.0
2014-Oct-17 02:31N 35°55' E 014°49'0 0.0
2014-Oct-17 01:31N 35°55' E 014°49'0 0.0
2014-Oct-17 00:19N 35°55' E 014°49'0 0.0
2014-Oct-16 23:28N 35°55' E 014°49'0 0.0
2014-Oct-16 22:31N 35°55' E 014°49'0 0.0
2014-Oct-16 21:31N 35°55' E 014°49'0 0.0
2014-Oct-16 20:31N 35°55' E 014°49'0 0.0
2014-Oct-16 19:31N 35°55' E 014°49'0 0.0
2014-Oct-16 18:31N 35°55' E 014°49'0 0.0
2014-Oct-16 17:22N 35°55' E 014°49'0 0.0
2014-Oct-16 16:31N 35°55' E 014°49'8 3.9
2014-Oct-16 14:31N 35°55' E 014°39'7 0.2
2014-Oct-14 23:07N 35°53' E 014°30'0 0.0
2014-Oct-14 14:19N 35°53' E 014°30'2 0.1
2014-Oct-13 06:07N 35°54' E 014°32'1 1.6
2014-Oct-13 05:33N 35°55' E 014°33'7 7.3
2014-Oct-13 04:33N 36°01' E 014°38'6 5.9
2014-Oct-13 03:33N 36°06' E 014°42'7 7.2
2014-Oct-13 02:33N 36°12' E 014°48'7 7.3
2014-Oct-13 01:33N 36°18' E 014°53'7 7.3
2014-Oct-13 00:33N 36°24' E 014°58'7 7.2
2014-Oct-12 23:33N 36°29' E 015°03'7 7.1
2014-Oct-12 22:31N 36°35' E 015°09'  
Track history (hours):
 
Tides and Currents Weather Stations Pressure Air Temp Water Temp Dewpoint Dewpoint Depression Visibility Wind Speed Wind Dir Waves Ship Positions

Gokbel

Last reported at 2014-Oct-18 12:15 UTC. Time now 2014-Oct-24 08:40 UTC.
Position N 34°06' E 010°31'.

Length 87 m; draft 3.7 m.

MMSI: 271042598.

Date/timePositionNaut miles runAvg speedWind from/ knotsBaromVisibWave heightAir tempDewpointWater temp
2014-Oct-18 12:15N 34°06' E 010°31'9 8.4
2014-Oct-18 11:08N 34°10' E 010°41'5 8.0
2014-Oct-18 10:33N 34°12' E 010°46'10 9.5
2014-Oct-18 09:32N 34°17' E 010°57'10 9.9
2014-Oct-18 08:33N 34°21' E 011°07'10 9.7
2014-Oct-18 07:33N 34°25' E 011°18'13 9.3
2014-Oct-18 06:07N 34°31' E 011°32'7 9.1
2014-Oct-18 05:19N 34°34' E 011°40'18 9.0
2014-Oct-18 03:18N 34°43' E 012°00'8 9.6
2014-Oct-18 02:28N 34°46' E 012°09'9 9.4
2014-Oct-18 01:33N 34°50' E 012°18'12 9.5
2014-Oct-18 00:20N 34°55' E 012°31'20 9.9
2014-Oct-17 22:20N 35°04' E 012°52'810.0
2014-Oct-17 21:33N 35°07' E 013°01'10 9.7
2014-Oct-17 20:33N 35°12' E 013°12'10 9.8
2014-Oct-17 19:33N 35°16' E 013°22'1010.0
2014-Oct-17 18:33N 35°20' E 013°33'10 9.8
2014-Oct-17 17:33N 35°25' E 013°44'9 9.5
2014-Oct-17 16:33N 35°29' E 013°55'9 9.4
2014-Oct-17 15:33N 35°33' E 014°05'9 9.2
2014-Oct-17 14:33N 35°37' E 014°15'9 9.0
2014-Oct-17 13:33N 35°40' E 014°25'9 8.7
2014-Oct-17 12:33N 35°44' E 014°35'9 8.6
2014-Oct-17 11:33N 35°49' E 014°43'7 7.2
2014-Oct-17 10:33N 35°55' E 014°49'0 0.0
2014-Oct-17 09:31N 35°55' E 014°49'0 0.0
2014-Oct-17 08:31N 35°55' E 014°49'0 0.0
2014-Oct-17 07:31N 35°55' E 014°49'0 0.0
2014-Oct-17 06:31N 35°55' E 014°49'0 0.0
2014-Oct-17 05:31N 35°55' E 014°49'0 0.0
2014-Oct-17 04:25N 35°55' E 014°49'0 0.1
2014-Oct-17 03:31N 35°55' E 014°49'0 0.0
2014-Oct-17 02:31N 35°55' E 014°49'0 0.0
2014-Oct-17 01:31N 35°55' E 014°49'0 0.0
2014-Oct-17 00:19N 35°55' E 014°49'0 0.0
2014-Oct-16 23:28N 35°55' E 014°49'0 0.0
2014-Oct-16 22:31N 35°55' E 014°49'0 0.0
2014-Oct-16 21:31N 35°55' E 014°49'0 0.0
2014-Oct-16 20:31N 35°55' E 014°49'0 0.0
2014-Oct-16 19:31N 35°55' E 014°49'0 0.0
2014-Oct-16 18:31N 35°55' E 014°49'0 0.0
2014-Oct-16 17:22N 35°55' E 014°49'0 0.0
2014-Oct-16 16:31N 35°55' E 014°49'8 3.9
2014-Oct-16 14:31N 35°55' E 014°39'7 0.2
2014-Oct-14 23:07N 35°53' E 014°30'0 0.0
2014-Oct-14 14:19N 35°53' E 014°30'2 0.1
2014-Oct-13 06:07N 35°54' E 014°32'1 1.6
2014-Oct-13 05:33N 35°55' E 014°33'7 7.3
2014-Oct-13 04:33N 36°01' E 014°38'6 5.9
2014-Oct-13 03:33N 36°06' E 014°42'7 7.2
2014-Oct-13 02:33N 36°12' E 014°48'7 7.3
2014-Oct-13 01:33N 36°18' E 014°53'7 7.3
2014-Oct-13 00:33N 36°24' E 014°58'7 7.2
2014-Oct-12 23:33N 36°29' E 015°03'7 7.1
2014-Oct-12 22:31N 36°35' E 015°09'  

Dump ship's entire track history